createdAt,value
2023-03-16T00:12:40.655Z,808.00
2023-03-16T00:24:40.630Z,793.00
2023-03-16T00:25:40.664Z,790.00
2023-03-16T00:26:40.766Z,789.00
2023-03-16T00:27:40.743Z,790.00
2023-03-16T00:28:40.776Z,790.00
2023-03-16T00:29:40.808Z,791.00
2023-03-16T00:30:40.937Z,792.00
2023-03-16T00:35:41.118Z,785.00
2023-03-16T00:40:41.222Z,780.00
2023-03-16T00:41:41.266Z,780.00
2023-03-16T00:42:41.305Z,782.00
2023-03-16T00:43:41.434Z,781.00
2023-03-16T00:44:41.388Z,779.00
2023-03-16T00:45:41.468Z,780.00
2023-03-16T00:46:41.457Z,781.00
2023-03-16T00:47:41.520Z,782.00
2023-03-16T00:48:41.554Z,781.00
2023-03-16T00:49:41.598Z,780.00
2023-03-16T00:51:41.685Z,781.00
2023-03-16T00:52:41.722Z,781.00
2023-03-16T00:53:41.784Z,778.00
2023-03-16T00:54:41.806Z,778.00
2023-03-16T00:55:41.850Z,776.00
2023-03-16T00:56:41.973Z,775.00
2023-03-16T00:57:41.956Z,774.00
2023-03-16T00:58:41.986Z,774.00
2023-03-16T00:59:42.023Z,772.00
2023-03-16T01:00:42.074Z,774.00
2023-03-16T01:02:42.167Z,771.00
2023-03-16T01:03:42.209Z,767.00
2023-03-16T01:04:42.262Z,766.00
2023-03-16T01:05:42.311Z,766.00
2023-03-16T01:06:42.351Z,766.00
2023-03-16T01:07:42.375Z,764.00
2023-03-16T01:08:42.500Z,763.00
2023-03-16T01:09:42.464Z,761.00
2023-03-16T01:10:42.509Z,760.00
2023-03-16T01:11:42.558Z,761.00
2023-03-16T01:12:42.603Z,759.00
2023-03-16T01:13:42.658Z,760.00
2023-03-16T01:14:42.700Z,758.00
2023-03-16T01:15:42.764Z,757.00
2023-03-16T01:16:42.843Z,758.00
2023-03-16T01:17:42.841Z,754.00
2023-03-16T01:18:42.894Z,751.00
2023-03-16T01:19:42.946Z,750.00
2023-03-16T01:20:42.992Z,748.00
2023-03-16T01:21:43.048Z,749.00
2023-03-16T01:22:43.088Z,749.00
2023-03-16T01:23:43.138Z,747.00
2023-03-16T01:24:43.175Z,747.00
2023-03-16T01:25:43.232Z,743.00
2023-03-16T01:26:43.289Z,741.00
2023-03-16T01:27:43.378Z,741.00
2023-03-16T01:28:43.371Z,740.00
2023-03-16T01:29:43.426Z,741.00
2023-03-16T01:30:43.480Z,741.00
2023-03-16T01:31:43.535Z,742.00
2023-03-16T01:32:43.683Z,741.00
2023-03-16T01:33:43.612Z,740.00
2023-03-16T01:34:43.683Z,740.00
2023-03-16T01:35:43.723Z,739.00
2023-03-16T01:36:43.762Z,736.00
2023-03-16T01:37:43.819Z,736.00
2023-03-16T01:38:43.870Z,735.00
2023-03-16T01:39:43.979Z,737.00
2023-03-16T01:40:44.046Z,738.00
2023-03-16T01:41:44.035Z,736.00
2023-03-16T01:42:44.082Z,737.00
2023-03-16T01:43:44.132Z,739.00
2023-03-16T01:44:44.193Z,740.00
2023-03-16T01:45:44.229Z,738.00
2023-03-16T01:46:44.318Z,736.00
2023-03-16T01:47:44.330Z,735.00
2023-03-16T01:48:44.514Z,734.00
2023-03-16T01:49:44.438Z,734.00
2023-03-16T01:50:44.484Z,735.00
2023-03-16T01:51:44.551Z,732.00
2023-03-16T01:52:44.602Z,730.00
2023-03-16T01:53:44.647Z,729.00
2023-03-16T01:54:44.714Z,726.00
2023-03-16T01:55:44.764Z,723.00
2023-03-16T01:56:44.818Z,721.00
2023-03-16T01:57:44.875Z,724.00
2023-03-16T01:58:44.925Z,725.00
2023-03-16T01:59:44.974Z,726.00
2023-03-16T02:00:45.026Z,727.00
2023-03-16T02:01:45.197Z,729.00
2023-03-16T02:02:45.142Z,728.00
2023-03-16T02:03:45.182Z,725.00
2023-03-16T02:04:45.327Z,725.00
2023-03-16T02:05:45.295Z,725.00
2023-03-16T02:06:45.346Z,727.00
2023-03-16T02:07:45.401Z,727.00
2023-03-16T02:08:45.443Z,728.00
2023-03-16T02:09:45.506Z,728.00
2023-03-16T02:10:45.556Z,727.00
2023-03-16T02:11:45.684Z,726.00
2023-03-16T02:12:45.649Z,727.00
2023-03-16T02:13:45.710Z,725.00
2023-03-16T02:14:45.765Z,722.00
2023-03-16T02:15:45.945Z,720.00
2023-03-16T02:16:45.867Z,721.00
2023-03-16T02:17:45.945Z,720.00
2023-03-16T02:18:45.988Z,720.00
2023-03-16T02:19:46.685Z,721.00
2023-03-16T02:20:46.066Z,721.00
2023-03-16T02:21:46.126Z,720.00
2023-03-16T02:22:46.176Z,722.00
2023-03-16T02:23:46.279Z,720.00
2023-03-16T02:24:46.290Z,717.00
2023-03-16T02:25:46.335Z,717.00
2023-03-16T02:26:46.382Z,715.00
2023-03-16T02:27:46.428Z,712.00
2023-03-16T02:28:46.482Z,712.00
2023-03-16T02:29:46.521Z,710.00
2023-03-16T02:30:46.632Z,710.00
2023-03-16T02:31:46.634Z,712.00
2023-03-16T02:32:46.709Z,714.00
2023-03-16T02:33:46.716Z,714.00
2023-03-16T02:34:46.821Z,715.00
2023-03-16T02:35:46.834Z,715.00
2023-03-16T02:36:46.824Z,713.00
2023-03-16T02:37:46.884Z,712.00
2023-03-16T02:38:46.917Z,711.00
2023-03-16T02:39:46.952Z,709.00
2023-03-16T02:40:47.687Z,709.00
2023-03-16T02:41:47.028Z,706.00
2023-03-16T02:42:47.075Z,703.00
2023-03-16T02:43:47.095Z,700.00
2023-03-16T02:44:47.135Z,702.00
2023-03-16T02:45:47.242Z,705.00
2023-03-16T02:46:47.262Z,705.00
2023-03-16T02:47:47.245Z,706.00
2023-03-16T02:48:47.279Z,704.00
2023-03-16T02:49:47.310Z,702.00
2023-03-16T02:50:47.337Z,703.00
2023-03-16T04:46:50.680Z,657.00
2023-03-16T04:47:50.652Z,655.00
2023-03-16T04:48:50.682Z,656.00
2023-03-16T04:49:50.719Z,654.00
2023-03-16T04:50:50.749Z,653.00
2023-03-16T04:51:50.789Z,652.00
2023-03-16T04:52:50.820Z,653.00
2023-03-16T04:53:51.737Z,649.00
2023-03-16T04:54:50.898Z,648.00
2023-03-16T04:58:51.005Z,650.00
2023-03-16T04:59:51.028Z,650.00
2023-03-16T05:00:51.052Z,650.00
2023-03-16T05:01:51.130Z,653.00
2023-03-16T05:02:51.119Z,653.00
2023-03-16T05:03:51.135Z,654.00
2023-03-16T05:04:51.167Z,654.00
2023-03-16T05:05:51.221Z,656.00
2023-03-16T05:06:51.224Z,657.00
2023-03-16T05:07:51.295Z,659.00
2023-03-16T05:08:51.303Z,657.00
2023-03-16T05:09:51.336Z,654.00
2023-03-16T05:10:51.339Z,653.00
2023-03-16T05:21:51.716Z,649.00
2023-03-16T05:22:51.755Z,648.00
2023-03-16T05:23:51.790Z,651.00
2023-03-16T05:24:51.846Z,652.00
2023-03-16T05:25:51.864Z,650.00
2023-03-16T05:26:51.893Z,649.00
2023-03-16T05:27:51.944Z,645.00
2023-03-16T05:28:51.966Z,642.00
2023-03-16T05:29:52.000Z,644.00
2023-03-16T05:30:52.129Z,644.00
2023-03-16T05:31:52.068Z,646.00
2023-03-16T05:32:52.141Z,644.00
2023-03-16T05:33:52.132Z,643.00
2023-03-16T05:34:52.175Z,644.00
2023-03-16T05:35:52.806Z,642.00
2023-03-16T05:36:52.252Z,641.00
2023-03-16T05:37:52.285Z,641.00
2023-03-16T05:38:52.306Z,642.00
2023-03-16T05:39:52.355Z,643.00
2023-03-16T05:40:52.392Z,642.00
2023-03-16T05:41:52.419Z,640.00
2023-03-16T05:42:52.443Z,639.00
2023-03-16T05:43:52.499Z,643.00
2023-03-16T05:44:52.516Z,642.00
2023-03-16T05:45:52.562Z,642.00
2023-03-16T05:46:52.635Z,641.00
2023-03-16T05:47:52.635Z,637.00
2023-03-16T05:48:52.660Z,635.00
2023-03-16T05:49:52.779Z,633.00
2023-03-16T05:50:53.255Z,632.00
2023-03-16T05:51:52.802Z,630.00
2023-03-16T05:52:52.949Z,630.00
2023-03-16T05:53:52.854Z,630.00
2023-03-16T05:54:52.885Z,628.00
2023-03-16T05:55:52.940Z,627.00
2023-03-16T05:56:52.979Z,628.00
2023-03-16T05:57:53.026Z,627.00
2023-03-16T05:58:53.062Z,628.00
2023-03-16T05:59:53.118Z,628.00
2023-03-16T06:00:53.155Z,629.00
2023-03-16T06:01:53.180Z,628.00
2023-03-16T06:02:53.260Z,628.00
2023-03-16T06:03:53.816Z,626.00
2023-03-16T06:04:53.302Z,623.00
2023-03-16T06:05:53.348Z,622.00
2023-03-16T06:06:53.374Z,625.00
2023-03-16T06:07:53.417Z,626.00
2023-03-16T06:08:53.446Z,628.00
2023-03-16T06:09:53.483Z,628.00
2023-03-16T06:10:53.535Z,629.00
2023-03-16T06:11:53.565Z,630.00
2023-03-16T06:12:53.602Z,629.00
2023-03-16T06:13:53.621Z,630.00
2023-03-16T06:14:53.647Z,632.00
2023-03-16T06:15:53.801Z,631.00
2023-03-16T06:16:53.762Z,629.00
2023-03-16T06:17:53.759Z,628.00
2023-03-16T06:18:53.879Z,687.00
2023-03-16T06:19:53.840Z,692.00
2023-03-16T06:20:53.889Z,692.00
2023-03-16T06:21:54.372Z,686.00
2023-03-16T06:22:53.955Z,698.00
2023-03-16T06:23:53.999Z,705.00
2023-03-16T06:24:54.044Z,712.00
2023-03-16T06:25:54.089Z,819.00
2023-03-16T06:26:54.128Z,837.00
2023-03-16T06:27:54.161Z,858.00
2023-03-16T06:28:54.181Z,885.00
2023-03-16T06:29:54.204Z,954.00
2023-03-16T06:30:54.214Z,972.00
2023-03-16T06:31:54.910Z,987.00
2023-03-16T06:32:54.884Z,1089.00
2023-03-16T06:33:54.773Z,1124.00
2023-03-16T06:34:54.331Z,1149.00
2023-03-16T06:35:54.421Z,1184.00
2023-03-16T06:36:54.477Z,1214.00
2023-03-16T06:37:54.545Z,1249.00
2023-03-16T06:38:54.605Z,1276.00
2023-03-16T06:39:54.686Z,1328.00
2023-03-16T06:40:54.741Z,1351.00
2023-03-16T06:41:54.801Z,1377.00
2023-03-16T06:42:54.859Z,1409.00
2023-03-16T06:43:54.920Z,1468.00
2023-03-16T06:44:54.978Z,1478.00
2023-03-16T06:45:55.063Z,1491.00
2023-03-16T06:46:55.078Z,1521.00
2023-03-16T06:47:55.130Z,1598.00
2023-03-16T06:48:55.882Z,1633.00
2023-03-16T06:49:55.233Z,1652.00
2023-03-16T06:50:55.269Z,1678.00
2023-03-16T06:51:55.316Z,1699.00
2023-03-16T06:52:55.349Z,1737.00
2023-03-16T07:10:55.787Z,2330.00
2023-03-16T12:16:03.031Z,1905.00
2023-03-16T12:18:00.886Z,1937.00
2023-03-16T16:55:59.358Z,1567.00
2023-03-16T16:56:59.360Z,1564.00
2023-03-16T16:57:59.378Z,1563.00
2023-03-16T16:59:59.400Z,1557.00
2023-03-16T17:00:59.446Z,1555.00
2023-03-16T17:01:59.407Z,1552.00
2023-03-16T17:02:59.418Z,1551.00
2023-03-16T17:03:59.482Z,1551.00
2023-03-16T17:05:00.009Z,1552.00
2023-03-16T17:05:59.477Z,1557.00
2023-03-16T17:06:59.494Z,1559.00
2023-03-16T17:07:59.513Z,1560.00
2023-03-16T17:08:59.559Z,1561.00
2023-03-16T17:09:59.570Z,1560.00
2023-03-16T17:10:59.588Z,1557.00
2023-03-16T17:11:59.613Z,1553.00
2023-03-16T17:12:59.670Z,1553.00
2023-03-16T17:13:59.665Z,1554.00
2023-03-16T17:14:59.745Z,1554.00
2023-03-16T17:15:59.759Z,1552.00
2023-03-16T17:16:59.809Z,1552.00
2023-03-16T17:17:59.866Z,1550.00
2023-03-16T17:18:59.824Z,1552.00
2023-03-16T17:19:59.862Z,1552.00
2023-03-16T17:20:59.903Z,1552.00
2023-03-16T17:21:59.947Z,1552.00
2023-03-16T17:22:59.975Z,1555.00
2023-03-16T17:24:00.026Z,1554.00
2023-03-16T17:25:00.055Z,1552.00
2023-03-16T17:26:00.105Z,1553.00
2023-03-16T17:27:00.173Z,1554.00
2023-03-16T17:28:00.184Z,1552.00
2023-03-16T17:29:00.228Z,1554.00
2023-03-16T17:30:00.395Z,1555.00
2023-03-16T17:31:00.478Z,1560.00
2023-03-16T17:32:00.380Z,1560.00
2023-03-16T17:34:00.468Z,1564.00
2023-03-16T17:35:00.612Z,1563.00
2023-03-16T17:36:00.618Z,1561.00
2023-03-16T17:37:00.632Z,1559.00
2023-03-16T17:38:00.690Z,1559.00
2023-03-16T17:39:00.796Z,1561.00
2023-03-16T17:40:00.785Z,1559.00
2023-03-16T17:41:00.853Z,1557.00
2023-03-16T17:42:00.895Z,1555.00
2023-03-16T17:43:00.954Z,1552.00
2023-03-16T17:44:00.997Z,1552.00
2023-03-16T17:45:01.073Z,1553.00
2023-03-16T17:46:01.176Z,1548.00
2023-03-16T17:47:01.162Z,1548.00
2023-03-16T17:48:01.208Z,1547.00
2023-03-16T17:49:01.240Z,1548.00
2023-03-16T17:50:01.395Z,1548.00
2023-03-16T17:51:01.362Z,1545.00
2023-03-16T17:52:01.447Z,1541.00
2023-03-16T17:53:01.494Z,1535.00
2023-03-16T17:54:01.558Z,1534.00
2023-03-16T17:55:01.636Z,1536.00
2023-03-16T17:56:01.679Z,1538.00
2023-03-16T17:57:01.720Z,1539.00
2023-03-16T17:58:01.724Z,1539.00
2023-03-16T17:59:01.750Z,1539.00
2023-03-16T18:00:01.786Z,1537.00
2023-03-16T18:01:01.861Z,1537.00
2023-03-16T18:02:01.889Z,1541.00
2023-03-16T18:03:01.828Z,1540.00
2023-03-16T18:04:01.928Z,1542.00
2023-03-16T18:05:01.839Z,1542.00
2023-03-16T18:06:01.826Z,1541.00
2023-03-16T18:07:01.839Z,1537.00
2023-03-16T18:08:01.816Z,1535.00
2023-03-16T18:09:01.818Z,1535.00
2023-03-16T18:10:01.828Z,1535.00
2023-03-16T18:11:01.805Z,1531.00
2023-03-16T18:12:01.805Z,1529.00
2023-03-16T18:13:02.061Z,1532.00
2023-03-16T18:14:01.778Z,1533.00
2023-03-16T18:15:01.783Z,1533.00
2023-03-16T18:16:01.844Z,1530.00
2023-03-16T18:17:01.909Z,1529.00
2023-03-16T18:18:01.809Z,1527.00
2023-03-16T18:19:01.769Z,1525.00
2023-03-16T18:20:01.769Z,1524.00
2023-03-16T18:21:01.799Z,1524.00
2023-03-16T18:22:01.773Z,1523.00
2023-03-16T18:23:01.795Z,1524.00
2023-03-16T18:24:01.796Z,1525.00
2023-03-16T18:25:01.787Z,1527.00
2023-03-16T18:26:01.793Z,1529.00
2023-03-16T18:27:01.794Z,1527.00
2023-03-16T18:28:01.808Z,1526.00
2023-03-16T18:29:01.780Z,1528.00
2023-03-16T18:30:01.782Z,1529.00
2023-03-16T18:31:01.895Z,1524.00
2023-03-16T18:32:01.805Z,1522.00
2023-03-16T18:33:01.918Z,1524.00
2023-03-16T18:34:01.809Z,1526.00
2023-03-16T18:35:03.979Z,1523.00
2023-03-16T18:36:01.969Z,1523.00
2023-03-16T18:37:01.810Z,1524.00
2023-03-16T18:38:01.862Z,1521.00
2023-03-16T18:39:01.829Z,1522.00
2023-03-16T18:40:01.840Z,1519.00
2023-03-16T18:41:01.827Z,1517.00
2023-03-16T18:42:01.834Z,1519.00
2023-03-16T18:43:01.824Z,1521.00
2023-03-16T18:44:01.847Z,1521.00
2023-03-16T18:45:01.825Z,1521.00
2023-03-16T18:46:01.824Z,1517.00
2023-03-16T18:47:01.925Z,1512.00
2023-03-16T18:48:01.835Z,1511.00
2023-03-16T18:49:01.918Z,1511.00
2023-03-16T18:50:01.814Z,1512.00
2023-03-16T18:51:01.826Z,1511.00
2023-03-16T18:52:01.825Z,1514.00
2023-03-16T18:53:01.820Z,1518.00
2023-03-16T18:54:01.839Z,1517.00
2023-03-16T18:55:01.818Z,1516.00
2023-03-16T18:56:01.808Z,1514.00
2023-03-16T18:57:01.876Z,1514.00
2023-03-16T18:58:01.824Z,1519.00
2023-03-16T18:59:01.808Z,1519.00
2023-03-16T19:00:01.840Z,1515.00
2023-03-16T19:01:01.860Z,1511.00
2023-03-16T19:02:01.912Z,1512.00
2023-03-16T19:03:01.815Z,1510.00
2023-03-16T19:04:01.813Z,1508.00
2023-03-16T19:05:01.813Z,1508.00
2023-03-16T19:06:01.851Z,1503.00
2023-03-16T19:07:01.838Z,1498.00
2023-03-16T19:08:01.841Z,1491.00
2023-03-16T19:09:01.826Z,1493.00
2023-03-16T19:10:02.552Z,1494.00
2023-03-16T19:11:01.864Z,1497.00
2023-03-16T19:12:01.840Z,1497.00
2023-03-16T19:13:01.846Z,1499.00
2023-03-16T19:14:01.849Z,1499.00
2023-03-16T19:15:01.867Z,1496.00
2023-03-16T19:16:01.902Z,1499.00
2023-03-16T19:17:01.880Z,1499.00
2023-03-16T19:18:02.072Z,1499.00
2023-03-16T19:19:02.548Z,1499.00
2023-03-16T19:20:01.886Z,1497.00
2023-03-16T19:21:01.910Z,1498.00
2023-03-16T19:22:01.913Z,1494.00
2023-03-16T19:23:01.918Z,1493.00
2023-03-16T19:24:01.928Z,1495.00
2023-03-16T19:25:01.944Z,1493.00
2023-03-16T19:26:01.950Z,1491.00
2023-03-16T19:27:01.980Z,1492.00
2023-03-16T19:28:02.004Z,1493.00
2023-03-16T19:29:01.991Z,1492.00
2023-03-16T19:30:02.005Z,1492.00
2023-03-16T19:31:02.025Z,1493.00
2023-03-16T19:32:02.087Z,1494.00
2023-03-16T19:33:02.069Z,1495.00
2023-03-16T19:34:02.057Z,1494.00
2023-03-16T19:35:02.074Z,1493.00
2023-03-16T19:36:02.099Z,1492.00
2023-03-16T19:37:02.116Z,1494.00
2023-03-16T19:38:02.123Z,1491.00
2023-03-16T19:39:02.210Z,1488.00
2023-03-16T19:40:02.166Z,1485.00
2023-03-16T19:41:02.172Z,1486.00
2023-03-16T19:42:02.187Z,1484.00
2023-03-16T19:43:02.208Z,1483.00
2023-03-16T19:44:02.335Z,1483.00
2023-03-16T19:45:02.253Z,1485.00
2023-03-16T19:46:02.372Z,1486.00
2023-03-16T19:47:02.296Z,1486.00
2023-03-16T19:48:02.331Z,1486.00
2023-03-16T19:49:02.329Z,1485.00
2023-03-16T19:50:02.361Z,1482.00
2023-03-16T19:51:02.384Z,1480.00
2023-03-16T19:52:02.404Z,1478.00
2023-03-16T19:53:02.429Z,1478.00
2023-03-16T19:54:02.481Z,1479.00
2023-03-16T19:55:02.448Z,1478.00
2023-03-16T19:56:02.475Z,1479.00
2023-03-16T19:57:02.498Z,1477.00
2023-03-16T19:58:02.521Z,1475.00
2023-03-16T19:59:02.550Z,1477.00
2023-03-16T20:00:03.625Z,1475.00
2023-03-16T20:01:02.662Z,1475.00
2023-03-16T20:02:02.610Z,1474.00
2023-03-16T20:03:02.663Z,1477.00
2023-03-16T20:04:02.745Z,1478.00
2023-03-16T20:05:02.705Z,1475.00
2023-03-16T20:06:02.731Z,1472.00
2023-03-16T20:07:02.747Z,1471.00
2023-03-16T20:08:02.773Z,1471.00
2023-03-16T20:09:02.800Z,1470.00
2023-03-16T20:10:02.865Z,1469.00
2023-03-16T20:11:02.873Z,1469.00
2023-03-16T20:12:02.889Z,1462.00
2023-03-16T20:13:02.923Z,1459.00
2023-03-16T20:14:02.949Z,1457.00
2023-03-16T20:15:02.970Z,1456.00
2023-03-16T20:16:03.006Z,1460.00
2023-03-16T20:17:03.113Z,1463.00
2023-03-16T20:18:03.092Z,1462.00
2023-03-16T20:19:03.131Z,1460.00
2023-03-16T20:20:03.137Z,1459.00
2023-03-16T20:21:03.184Z,1456.00
2023-03-16T20:22:03.200Z,1457.00
2023-03-16T20:23:03.234Z,1454.00
2023-03-16T20:24:03.270Z,1456.00
2023-03-16T20:25:03.371Z,1454.00
2023-03-16T20:26:03.342Z,1451.00
2023-03-16T20:27:03.369Z,1453.00
2023-03-16T20:28:03.401Z,1452.00
2023-03-16T20:29:03.438Z,1453.00
2023-03-16T20:30:03.475Z,1456.00
2023-03-16T20:31:03.594Z,1454.00
2023-03-16T20:32:03.557Z,1451.00
2023-03-16T20:33:03.637Z,1452.00
2023-03-16T20:34:03.618Z,1449.00
2023-03-16T20:35:03.657Z,1449.00
2023-03-16T20:36:03.894Z,1446.00
2023-03-16T20:37:03.725Z,1444.00
2023-03-16T20:38:03.759Z,1444.00
2023-03-16T20:39:03.799Z,1446.00
2023-03-16T20:40:03.862Z,1442.00
2023-03-16T20:41:03.901Z,1439.00
2023-03-16T20:42:03.923Z,1436.00
2023-03-16T20:43:03.967Z,1436.00
2023-03-16T20:44:04.025Z,1438.00
2023-03-16T20:45:04.044Z,1437.00
2023-03-16T20:46:04.151Z,1434.00
2023-03-16T20:47:04.193Z,1433.00
2023-03-16T21:07:04.975Z,1427.00
2023-03-16T21:08:05.022Z,1429.00
2023-03-16T21:10:05.133Z,1427.00
2023-03-16T21:11:05.209Z,1429.00
2023-03-16T21:12:05.203Z,1430.00
2023-03-16T21:13:05.256Z,1430.00
2023-03-16T21:14:05.297Z,1429.00
2023-03-16T21:15:05.372Z,1428.00
2023-03-16T21:16:05.442Z,1430.00
2023-03-16T21:17:05.447Z,1429.00
2023-03-16T21:18:05.501Z,1428.00
2023-03-16T21:19:05.568Z,1427.00
2023-03-16T21:20:05.613Z,1426.00
2023-03-16T21:21:05.648Z,1427.00
2023-03-16T21:22:05.709Z,1428.00
2023-03-16T21:23:05.759Z,1425.00
2023-03-16T21:24:05.796Z,1421.00
2023-03-16T21:25:05.854Z,1415.00
2023-03-16T21:26:05.935Z,1415.00
2023-03-16T21:27:05.958Z,1413.00
2023-03-16T21:28:06.019Z,1413.00
2023-03-16T21:29:06.112Z,1411.00
2023-03-16T21:30:06.121Z,1408.00
2023-03-16T21:31:06.181Z,1405.00
2023-03-16T21:32:06.238Z,1405.00
2023-03-16T21:33:06.318Z,1406.00
2023-03-16T21:34:06.360Z,1403.00
2023-03-16T21:35:06.439Z,1405.00
2023-03-16T21:36:06.470Z,1406.00
2023-03-16T21:37:06.619Z,1406.00
2023-03-16T21:38:06.585Z,1403.00
2023-03-16T21:39:06.648Z,1402.00
2023-03-16T21:40:06.698Z,1401.00
2023-03-16T21:41:06.773Z,1403.00
2023-03-16T22:45:10.713Z,1362.00
2023-03-16T22:46:10.731Z,1361.00
2023-03-16T22:47:10.765Z,1356.00
2023-03-16T22:48:10.915Z,1356.00
2023-03-16T22:49:10.907Z,1356.00
2023-03-16T22:50:10.962Z,1357.00
2023-03-16T22:51:11.031Z,1353.00
2023-03-16T22:52:11.172Z,1353.00
2023-03-16T22:53:11.161Z,1352.00
2023-03-16T22:54:11.231Z,1351.00
2023-03-16T22:55:11.287Z,1349.00
2023-03-16T22:56:11.363Z,1348.00
2023-03-16T22:57:11.420Z,1348.00
2023-03-16T22:58:11.485Z,1350.00
2023-03-16T22:59:11.635Z,1345.00
2023-03-16T23:00:11.622Z,1345.00
2023-03-16T23:01:11.709Z,1347.00
2023-03-16T23:02:11.741Z,1348.00
2023-03-16T23:03:11.823Z,1344.00
2023-03-16T23:04:11.938Z,1347.00
2023-03-16T23:05:11.952Z,1345.00
2023-03-16T23:06:12.024Z,1342.00
2023-03-16T23:07:12.083Z,1344.00
2023-03-16T23:08:12.178Z,1343.00
2023-03-16T23:09:13.166Z,1342.00
2023-03-16T23:10:12.281Z,1340.00
2023-03-16T23:11:12.352Z,1335.00
2023-03-16T23:12:12.420Z,1331.00
2023-03-16T23:13:12.494Z,1330.00
2023-03-16T23:14:13.120Z,1328.00
2023-03-16T23:15:12.626Z,1324.00
2023-03-16T23:16:12.725Z,1322.00
2023-03-16T23:17:12.768Z,1322.00
2023-03-16T23:18:12.857Z,1321.00
2023-03-16T23:19:24.135Z,1322.00
2023-03-16T23:20:13.932Z,1317.00
2023-03-16T23:21:12.932Z,1317.00
2023-03-16T23:22:13.236Z,1316.00
2023-03-16T23:23:12.944Z,1318.00
2023-03-16T23:24:12.946Z,1316.00
2023-03-16T23:25:12.955Z,1314.00
2023-03-16T23:26:12.959Z,1310.00
2023-03-16T23:27:12.967Z,1309.00
2023-03-16T23:28:13.028Z,1310.00
